sensor_id;sensor_type;location;lat;lon;timestamp;pressure;altitude;pressure_sealevel;temperature;humidity
6853;BME280;3465;42.144;24.722;2022-07-05T00:00:31;99573.19;;;22.67;64.38
6853;BME280;3465;42.144;24.722;2022-07-05T00:02:57;99571.63;;;22.61;64.67
6853;BME280;3465;42.144;24.722;2022-07-05T00:05:22;99582.84;;;22.64;64.71
6853;BME280;3465;42.144;24.722;2022-07-05T00:07:48;99569.00;;;22.61;64.71
6853;BME280;3465;42.144;24.722;2022-07-05T00:10:13;99583.50;;;22.71;64.53
6853;BME280;3465;42.144;24.722;2022-07-05T00:12:39;99566.00;;;22.73;64.26
6853;BME280;3465;42.144;24.722;2022-07-05T00:15:04;99553.94;;;22.67;64.40
6853;BME280;3465;42.144;24.722;2022-07-05T00:17:30;99579.50;;;22.86;63.96
6853;BME280;3465;42.144;24.722;2022-07-05T00:19:55;99564.72;;;22.85;63.86
6853;BME280;3465;42.144;24.722;2022-07-05T00:22:21;99571.78;;;22.83;64.33
6853;BME280;3465;42.144;24.722;2022-07-05T00:24:46;99576.72;;;22.90;64.38
6853;BME280;3465;42.144;24.722;2022-07-05T00:27:11;99575.97;;;22.88;63.94
6853;BME280;3465;42.144;24.722;2022-07-05T00:29:37;99570.91;;;22.82;63.98
6853;BME280;3465;42.144;24.722;2022-07-05T00:32:02;99558.72;;;22.81;63.85
6853;BME280;3465;42.144;24.722;2022-07-05T00:34:28;99558.88;;;22.77;64.66
6853;BME280;3465;42.144;24.722;2022-07-05T00:36:53;99560.41;;;22.82;64.36
6853;BME280;3465;42.144;24.722;2022-07-05T00:39:19;99554.81;;;22.68;65.31
6853;BME280;3465;42.144;24.722;2022-07-05T00:41:44;99552.69;;;22.53;66.10
6853;BME280;3465;42.144;24.722;2022-07-05T00:44:11;99549.94;;;22.57;65.56
6853;BME280;3465;42.144;24.722;2022-07-05T00:46:38;99541.81;;;22.65;66.19
6853;BME280;3465;42.144;24.722;2022-07-05T00:49:04;99538.28;;;22.66;65.24
6853;BME280;3465;42.144;24.722;2022-07-05T00:51:32;99551.13;;;22.74;65.47
6853;BME280;3465;42.144;24.722;2022-07-05T00:53:59;99548.75;;;22.66;65.51
6853;BME280;3465;42.144;24.722;2022-07-05T00:56:24;99543.78;;;22.58;66.37
6853;BME280;3465;42.144;24.722;2022-07-05T00:58:50;99533.47;;;22.54;66.41
6853;BME280;3465;42.144;24.722;2022-07-05T01:01:17;99542.88;;;22.59;66.60
6853;BME280;3465;42.144;24.722;2022-07-05T01:03:43;99527.06;;;22.62;66.49
6853;BME280;3465;42.144;24.722;2022-07-05T01:06:10;99538.00;;;22.75;66.41
6853;BME280;3465;42.144;24.722;2022-07-05T01:08:41;99542.53;;;22.70;66.97
6853;BME280;3465;42.144;24.722;2022-07-05T01:11:08;99545.16;;;22.70;67.25
6853;BME280;3465;42.144;24.722;2022-07-05T01:13:36;99528.72;;;22.65;68.20
6853;BME280;3465;42.144;24.722;2022-07-05T01:16:02;99529.66;;;22.64;67.77
6853;BME280;3465;42.144;24.722;2022-07-05T01:18:28;99537.06;;;22.76;67.80
6853;BME280;3465;42.144;24.722;2022-07-05T01:20:53;99532.16;;;22.67;68.90
6853;BME280;3465;42.144;24.722;2022-07-05T01:23:20;99534.66;;;22.70;70.06
6853;BME280;3465;42.144;24.722;2022-07-05T01:25:49;99527.75;;;22.67;70.74
6853;BME280;3465;42.144;24.722;2022-07-05T01:28:15;99521.09;;;22.59;71.15
6853;BME280;3465;42.144;24.722;2022-07-05T01:30:42;99510.63;;;22.59;71.21
6853;BME280;3465;42.144;24.722;2022-07-05T01:33:08;99523.38;;;22.68;70.38
6853;BME280;3465;42.144;24.722;2022-07-05T01:35:34;99504.81;;;22.49;70.46
6853;BME280;3465;42.144;24.722;2022-07-05T01:37:59;99517.84;;;22.51;70.31
6853;BME280;3465;42.144;24.722;2022-07-05T01:40:25;99504.16;;;22.43;70.05
6853;BME280;3465;42.144;24.722;2022-07-05T01:42:51;99502.31;;;22.45;69.53
6853;BME280;3465;42.144;24.722;2022-07-05T01:45:17;99493.38;;;22.26;69.35
6853;BME280;3465;42.144;24.722;2022-07-05T01:48:04;99516.53;;;22.38;69.20
6853;BME280;3465;42.144;24.722;2022-07-05T01:50:34;99513.38;;;22.28;69.53
6853;BME280;3465;42.144;24.722;2022-07-05T01:53:00;99512.03;;;22.15;70.77
6853;BME280;3465;42.144;24.722;2022-07-05T01:55:28;99516.16;;;22.22;70.72
6853;BME280;3465;42.144;24.722;2022-07-05T01:57:53;99511.69;;;21.98;71.92
6853;BME280;3465;42.144;24.722;2022-07-05T02:00:19;99521.53;;;21.92;73.17
6853;BME280;3465;42.144;24.722;2022-07-05T02:02:46;99533.78;;;21.90;74.48
6853;BME280;3465;42.144;24.722;2022-07-05T02:05:12;99531.22;;;21.88;75.94
6853;BME280;3465;42.144;24.722;2022-07-05T02:07:46;99512.31;;;21.80;74.84
6853;BME280;3465;42.144;24.722;2022-07-05T02:10:12;99517.22;;;21.89;72.66
6853;BME280;3465;42.144;24.722;2022-07-05T02:12:37;99532.06;;;21.89;72.47
6853;BME280;3465;42.144;24.722;2022-07-05T02:15:03;99527.38;;;21.71;73.54
6853;BME280;3465;42.144;24.722;2022-07-05T02:17:28;99529.53;;;21.57;73.99
6853;BME280;3465;42.144;24.722;2022-07-05T02:19:54;99533.91;;;21.56;73.66
6853;BME280;3465;42.144;24.722;2022-07-05T02:22:19;99541.13;;;21.48;74.55
6853;BME280;3465;42.144;24.722;2022-07-05T02:24:44;99515.91;;;21.46;74.69
6853;BME280;3465;42.144;24.722;2022-07-05T02:27:10;99533.72;;;21.62;74.18
6853;BME280;3465;42.144;24.722;2022-07-05T02:29:35;99519.06;;;21.57;75.79
6853;BME280;3465;42.144;24.722;2022-07-05T02:32:01;99512.28;;;21.51;76.21
6853;BME280;3465;42.144;24.722;2022-07-05T02:34:26;99509.19;;;21.39;76.89
6853;BME280;3465;42.144;24.722;2022-07-05T02:36:52;99528.09;;;21.47;76.67
6853;BME280;3465;42.144;24.722;2022-07-05T02:39:17;99536.81;;;21.46;77.42
6853;BME280;3465;42.144;24.722;2022-07-05T02:41:43;99550.16;;;21.37;76.42
6853;BME280;3465;42.144;24.722;2022-07-05T02:44:08;99549.97;;;21.43;74.18
6853;BME280;3465;42.144;24.722;2022-07-05T02:46:33;99546.03;;;21.28;74.41
6853;BME280;3465;42.144;24.722;2022-07-05T02:48:59;99544.53;;;21.21;75.34
6853;BME280;3465;42.144;24.722;2022-07-05T02:51:25;99547.25;;;21.16;75.67
6853;BME280;3465;42.144;24.722;2022-07-05T02:53:50;99543.00;;;21.12;75.76
6853;BME280;3465;42.144;24.722;2022-07-05T02:56:15;99549.25;;;21.07;75.81
6853;BME280;3465;42.144;24.722;2022-07-05T02:58:41;99529.84;;;20.83;76.11
6853;BME280;3465;42.144;24.722;2022-07-05T03:01:06;99557.44;;;20.93;76.71
6853;BME280;3465;42.144;24.722;2022-07-05T03:03:32;99553.91;;;20.94;76.30
6853;BME280;3465;42.144;24.722;2022-07-05T03:05:57;99547.91;;;20.91;76.77
6853;BME280;3465;42.144;24.722;2022-07-05T03:08:22;99551.31;;;20.94;76.48
6853;BME280;3465;42.144;24.722;2022-07-05T03:10:48;99551.47;;;20.88;77.30
6853;BME280;3465;42.144;24.722;2022-07-05T03:13:13;99554.75;;;20.63;78.80
6853;BME280;3465;42.144;24.722;2022-07-05T03:15:39;99550.66;;;20.53;80.19
6853;BME280;3465;42.144;24.722;2022-07-05T03:18:04;99555.91;;;20.51;80.87
6853;BME280;3465;42.144;24.722;2022-07-05T03:20:30;99541.28;;;20.44;81.26
6853;BME280;3465;42.144;24.722;2022-07-05T03:22:55;99538.41;;;20.21;83.11
6853;BME280;3465;42.144;24.722;2022-07-05T03:25:21;99544.44;;;20.22;83.42
6853;BME280;3465;42.144;24.722;2022-07-05T03:27:46;99537.03;;;20.42;82.71
6853;BME280;3465;42.144;24.722;2022-07-05T03:30:12;99538.63;;;20.47;82.48
6853;BME280;3465;42.144;24.722;2022-07-05T03:32:37;99543.72;;;20.52;82.44
6853;BME280;3465;42.144;24.722;2022-07-05T03:35:03;99523.84;;;20.46;83.53
6853;BME280;3465;42.144;24.722;2022-07-05T03:37:29;99537.38;;;20.62;83.53
6853;BME280;3465;42.144;24.722;2022-07-05T03:39:54;99533.00;;;20.62;83.75
6853;BME280;3465;42.144;24.722;2022-07-05T03:42:20;99543.44;;;20.62;84.51
6853;BME280;3465;42.144;24.722;2022-07-05T03:44:45;99527.63;;;20.68;84.69
6853;BME280;3465;42.144;24.722;2022-07-05T03:47:10;99541.34;;;20.76;85.39
6853;BME280;3465;42.144;24.722;2022-07-05T03:49:36;99531.88;;;20.72;85.12
6853;BME280;3465;42.144;24.722;2022-07-05T03:52:01;99531.88;;;20.72;85.11
6853;BME280;3465;42.144;24.722;2022-07-05T03:54:27;99538.63;;;20.81;85.10
6853;BME280;3465;42.144;24.722;2022-07-05T03:56:52;99493.84;;;20.62;84.35
6853;BME280;3465;42.144;24.722;2022-07-05T03:59:18;99525.66;;;20.76;85.07
6853;BME280;3465;42.144;24.722;2022-07-05T04:01:43;99518.03;;;20.69;84.87
6853;BME280;3465;42.144;24.722;2022-07-05T04:04:08;99546.94;;;20.63;85.27
6853;BME280;3465;42.144;24.722;2022-07-05T04:06:34;99543.53;;;20.59;85.15
6853;BME280;3465;42.144;24.722;2022-07-05T04:08:59;99519.28;;;20.54;84.53
6853;BME280;3465;42.144;24.722;2022-07-05T04:11:25;99522.41;;;20.68;84.39
6853;BME280;3465;42.144;24.722;2022-07-05T04:13:50;99517.75;;;20.81;83.67
6853;BME280;3465;42.144;24.722;2022-07-05T04:16:15;99520.81;;;20.96;83.16
6853;BME280;3465;42.144;24.722;2022-07-05T04:18:41;99525.78;;;21.05;83.00
6853;BME280;3465;42.144;24.722;2022-07-05T04:21:06;99499.84;;;20.99;81.88
6853;BME280;3465;42.144;24.722;2022-07-05T04:23:32;99516.97;;;21.09;81.66
6853;BME280;3465;42.144;24.722;2022-07-05T04:25:58;99517.50;;;21.22;81.74
6853;BME280;3465;42.144;24.722;2022-07-05T04:28:25;99529.22;;;21.38;81.55
6853;BME280;3465;42.144;24.722;2022-07-05T04:30:50;99507.72;;;21.28;81.41
6853;BME280;3465;42.144;24.722;2022-07-05T04:33:15;99514.50;;;21.34;81.33
6853;BME280;3465;42.144;24.722;2022-07-05T04:35:41;99516.78;;;21.46;80.54
6853;BME280;3465;42.144;24.722;2022-07-05T04:38:06;99507.94;;;21.50;80.76
6853;BME280;3465;42.144;24.722;2022-07-05T04:40:32;99511.06;;;21.34;81.93
6853;BME280;3465;42.144;24.722;2022-07-05T04:42:57;99513.94;;;21.54;81.26
6853;BME280;3465;42.144;24.722;2022-07-05T04:45:23;99506.28;;;21.48;81.41
6853;BME280;3465;42.144;24.722;2022-07-05T04:47:48;99507.31;;;21.42;80.69
6853;BME280;3465;42.144;24.722;2022-07-05T04:50:14;99511.91;;;21.34;80.71
6853;BME280;3465;42.144;24.722;2022-07-05T04:52:39;99510.28;;;21.30;81.28
6853;BME280;3465;42.144;24.722;2022-07-05T04:55:05;99519.44;;;21.45;81.37
6853;BME280;3465;42.144;24.722;2022-07-05T04:57:41;99454.38;;;21.06;81.43
6853;BME280;3465;42.144;24.722;2022-07-05T05:00:09;99523.47;;;21.56;80.81
6853;BME280;3465;42.144;24.722;2022-07-05T05:02:35;99515.28;;;21.67;79.40
6853;BME280;3465;42.144;24.722;2022-07-05T05:05:00;99517.56;;;21.79;79.53
6853;BME280;3465;42.144;24.722;2022-07-05T05:07:26;99502.66;;;21.81;78.72
6853;BME280;3465;42.144;24.722;2022-07-05T05:09:52;99518.94;;;21.90;78.92
6853;BME280;3465;42.144;24.722;2022-07-05T05:12:18;99522.81;;;22.05;78.76
6853;BME280;3465;42.144;24.722;2022-07-05T05:14:43;99538.25;;;22.14;77.99
6853;BME280;3465;42.144;24.722;2022-07-05T05:17:09;99534.34;;;22.27;76.48
6853;BME280;3465;42.144;24.722;2022-07-05T05:19:34;99544.66;;;22.31;76.15
6853;BME280;3465;42.144;24.722;2022-07-05T05:21:59;99533.22;;;22.34;75.71
6853;BME280;3465;42.144;24.722;2022-07-05T05:24:25;99470.66;;;22.00;74.93
6853;BME280;3465;42.144;24.722;2022-07-05T05:26:50;99563.16;;;22.53;73.66
6853;BME280;3465;42.144;24.722;2022-07-05T05:29:17;99555.25;;;22.54;73.30
6853;BME280;3465;42.144;24.722;2022-07-05T05:31:42;99556.56;;;22.67;72.48
6853;BME280;3465;42.144;24.722;2022-07-05T05:34:07;99558.72;;;22.81;71.25
6853;BME280;3465;42.144;24.722;2022-07-05T05:36:33;99539.28;;;22.88;70.92
6853;BME280;3465;42.144;24.722;2022-07-05T05:38:58;99554.44;;;23.03;70.43
6853;BME280;3465;42.144;24.722;2022-07-05T05:41:24;99563.00;;;23.08;69.50
6853;BME280;3465;42.144;24.722;2022-07-05T05:43:49;99547.81;;;22.93;70.27
6853;BME280;3465;42.144;24.722;2022-07-05T05:46:14;99545.00;;;22.99;70.40
6853;BME280;3465;42.144;24.722;2022-07-05T05:48:40;99564.34;;;23.20;69.74
6853;BME280;3465;42.144;24.722;2022-07-05T05:51:05;99565.59;;;23.34;68.47
6853;BME280;3465;42.144;24.722;2022-07-05T05:53:31;99569.25;;;23.53;68.49
6853;BME280;3465;42.144;24.722;2022-07-05T05:55:56;99559.13;;;23.43;68.64
6853;BME280;3465;42.144;24.722;2022-07-05T05:58:22;99559.13;;;23.43;69.20
6853;BME280;3465;42.144;24.722;2022-07-05T06:00:51;99578.63;;;23.59;69.47
6853;BME280;3465;42.144;24.722;2022-07-05T06:03:21;99563.78;;;23.59;69.29
6853;BME280;3465;42.144;24.722;2022-07-05T06:05:47;99545.41;;;23.59;68.60
6853;BME280;3465;42.144;24.722;2022-07-05T06:08:13;99562.03;;;23.81;68.85
6853;BME280;3465;42.144;24.722;2022-07-05T06:10:39;99559.97;;;23.89;68.93
6853;BME280;3465;42.144;24.722;2022-07-05T06:13:10;99532.16;;;23.85;68.35
6853;BME280;3465;42.144;24.722;2022-07-05T06:15:36;99552.34;;;24.07;67.73
6853;BME280;3465;42.144;24.722;2022-07-05T06:18:02;99543.84;;;24.22;67.82
6853;BME280;3465;42.144;24.722;2022-07-05T06:20:32;99529.03;;;24.21;67.78
6853;BME280;3465;42.144;24.722;2022-07-05T06:22:59;99523.47;;;24.28;69.24
6853;BME280;3465;42.144;24.722;2022-07-05T06:25:25;99540.91;;;24.51;67.79
6853;BME280;3465;42.144;24.722;2022-07-05T06:27:56;99523.38;;;24.51;67.19
6853;BME280;3465;42.144;24.722;2022-07-05T06:30:23;99537.09;;;24.79;66.09
6853;BME280;3465;42.144;24.722;2022-07-05T06:32:50;99523.78;;;24.84;66.62
6853;BME280;3465;42.144;24.722;2022-07-05T06:35:16;99539.13;;;24.93;66.08
6853;BME280;3465;42.144;24.722;2022-07-05T06:40:09;99517.19;;;24.74;64.76
6853;BME280;3465;42.144;24.722;2022-07-05T06:42:34;99516.06;;;24.99;65.47
6853;BME280;3465;42.144;24.722;2022-07-05T06:45:00;99529.69;;;25.27;62.58
6853;BME280;3465;42.144;24.722;2022-07-05T06:47:25;99531.97;;;25.37;61.40
6853;BME280;3465;42.144;24.722;2022-07-05T06:49:51;99537.88;;;25.60;61.10
6853;BME280;3465;42.144;24.722;2022-07-05T06:52:16;99530.50;;;25.87;59.88
6853;BME280;3465;42.144;24.722;2022-07-05T06:54:42;99505.09;;;26.04;58.68
6853;BME280;3465;42.144;24.722;2022-07-05T06:57:08;99529.31;;;26.29;57.43
6853;BME280;3465;42.144;24.722;2022-07-05T06:59:33;99526.56;;;26.49;57.34
6853;BME280;3465;42.144;24.722;2022-07-05T07:01:58;99529.75;;;26.90;56.23
6853;BME280;3465;42.144;24.722;2022-07-05T07:04:24;99525.28;;;27.25;55.12
6853;BME280;3465;42.144;24.722;2022-07-05T07:06:49;99510.28;;;27.42;54.27
6853;BME280;3465;42.144;24.722;2022-07-05T07:09:15;99510.31;;;27.73;53.64
6853;BME280;3465;42.144;24.722;2022-07-05T07:11:43;99510.84;;;28.11;52.24
6853;BME280;3465;42.144;24.722;2022-07-05T07:14:09;99516.00;;;28.44;50.22
6853;BME280;3465;42.144;24.722;2022-07-05T07:16:35;99517.78;;;28.73;47.43
6853;BME280;3465;42.144;24.722;2022-07-05T07:19:00;99509.88;;;29.45;44.88
6853;BME280;3465;42.144;24.722;2022-07-05T07:21:26;99508.44;;;29.81;44.55
6853;BME280;3465;42.144;24.722;2022-07-05T07:23:51;99523.69;;;30.84;42.96
6853;BME280;3465;42.144;24.722;2022-07-05T07:26:16;99524.47;;;31.61;41.07
6853;BME280;3465;42.144;24.722;2022-07-05T07:28:42;99522.34;;;31.29;39.87
6853;BME280;3465;42.144;24.722;2022-07-05T07:31:08;99527.06;;;31.86;38.13
6853;BME280;3465;42.144;24.722;2022-07-05T07:33:33;99535.28;;;32.20;36.53
6853;BME280;3465;42.144;24.722;2022-07-05T07:35:59;99541.44;;;32.67;37.35
6853;BME280;3465;42.144;24.722;2022-07-05T07:38:24;99541.91;;;32.96;36.45
6853;BME280;3465;42.144;24.722;2022-07-05T07:40:51;99539.25;;;33.64;35.41
6853;BME280;3465;42.144;24.722;2022-07-05T07:43:16;99552.84;;;34.36;34.67
6853;BME280;3465;42.144;24.722;2022-07-05T07:45:42;99563.28;;;34.71;32.60
6853;BME280;3465;42.144;24.722;2022-07-05T07:48:08;99555.19;;;34.61;31.11
6853;BME280;3465;42.144;24.722;2022-07-05T07:50:34;99561.38;;;35.14;30.30
6853;BME280;3465;42.144;24.722;2022-07-05T07:52:59;99557.72;;;35.36;30.14
6853;BME280;3465;42.144;24.722;2022-07-05T07:55:25;99557.47;;;35.69;28.77
6853;BME280;3465;42.144;24.722;2022-07-05T07:57:50;99555.69;;;35.79;28.50
6853;BME280;3465;42.144;24.722;2022-07-05T08:00:16;99565.88;;;36.44;27.30
6853;BME280;3465;42.144;24.722;2022-07-05T08:02:41;99581.53;;;37.24;26.12
6853;BME280;3465;42.144;24.722;2022-07-05T08:05:07;99579.22;;;37.85;24.85
6853;BME280;3465;42.144;24.722;2022-07-05T08:07:35;99551.88;;;37.82;24.68
6853;BME280;3465;42.144;24.722;2022-07-05T08:10:01;99561.03;;;38.51;23.93
6853;BME280;3465;42.144;24.722;2022-07-05T08:12:26;99604.50;;;39.60;21.52
6853;BME280;3465;42.144;24.722;2022-07-05T08:14:52;99610.94;;;40.01;23.04
6853;BME280;3465;42.144;24.722;2022-07-05T08:17:17;99601.63;;;40.21;23.14
6853;BME280;3465;42.144;24.722;2022-07-05T08:19:46;99607.69;;;40.72;23.10
6853;BME280;3465;42.144;24.722;2022-07-05T08:22:30;99610.56;;;41.43;21.82
6853;BME280;3465;42.144;24.722;2022-07-05T08:24:55;99597.94;;;39.88;22.51
6853;BME280;3465;42.144;24.722;2022-07-05T08:27:21;99594.66;;;39.25;23.58
6853;BME280;3465;42.144;24.722;2022-07-05T08:29:46;99596.50;;;40.43;22.77
6853;BME280;3465;42.144;24.722;2022-07-05T08:32:12;99583.38;;;39.99;23.13
6853;BME280;3465;42.144;24.722;2022-07-05T08:34:37;99591.75;;;40.37;22.37
6853;BME280;3465;42.144;24.722;2022-07-05T08:37:03;99586.53;;;40.36;22.54
6853;BME280;3465;42.144;24.722;2022-07-05T08:39:29;99600.78;;;41.10;21.51
6853;BME280;3465;42.144;24.722;2022-07-05T08:41:57;99589.31;;;41.00;21.50
6853;BME280;3465;42.144;24.722;2022-07-05T08:44:23;99584.84;;;41.79;21.48
6853;BME280;3465;42.144;24.722;2022-07-05T08:46:51;99593.72;;;41.33;21.92
6853;BME280;3465;42.144;24.722;2022-07-05T08:49:23;99594.00;;;42.70;20.38
6853;BME280;3465;42.144;24.722;2022-07-05T08:51:49;99599.03;;;43.04;19.65
6853;BME280;3465;42.144;24.722;2022-07-05T08:54:15;99586.28;;;42.67;18.88
6853;BME280;3465;42.144;24.722;2022-07-05T08:56:42;99577.56;;;41.96;19.87
6853;BME280;3465;42.144;24.722;2022-07-05T08:59:07;99578.13;;;42.75;19.75
6853;BME280;3465;42.144;24.722;2022-07-05T09:01:34;99569.94;;;41.45;20.64
6853;BME280;3465;42.144;24.722;2022-07-05T09:04:04;99565.09;;;41.79;19.51
6853;BME280;3465;42.144;24.722;2022-07-05T09:06:31;99570.63;;;41.22;20.40
6853;BME280;3465;42.144;24.722;2022-07-05T09:08:58;99563.50;;;40.57;20.69
6853;BME280;3465;42.144;24.722;2022-07-05T09:11:28;99559.34;;;40.21;20.86
6853;BME280;3465;42.144;24.722;2022-07-05T09:13:54;99555.47;;;41.05;20.85
6853;BME280;3465;42.144;24.722;2022-07-05T09:16:19;99532.63;;;42.03;19.72
6853;BME280;3465;42.144;24.722;2022-07-05T09:18:50;99540.03;;;42.39;19.23
6853;BME280;3465;42.144;24.722;2022-07-05T09:21:20;99575.47;;;42.90;18.70
6853;BME280;3465;42.144;24.722;2022-07-05T09:23:54;99558.22;;;41.76;18.30
6853;BME280;3465;42.144;24.722;2022-07-05T09:26:24;99558.34;;;40.72;19.36
6853;BME280;3465;42.144;24.722;2022-07-05T09:28:55;99546.84;;;41.26;19.39
6853;BME280;3465;42.144;24.722;2022-07-05T09:31:32;99549.47;;;42.66;20.16
6853;BME280;3465;42.144;24.722;2022-07-05T09:34:07;99550.06;;;43.36;19.52
6853;BME280;3465;42.144;24.722;2022-07-05T09:36:54;99555.78;;;42.59;21.05
6853;BME280;3465;42.144;24.722;2022-07-05T09:39:39;99540.13;;;42.69;20.22
6853;BME280;3465;42.144;24.722;2022-07-05T09:42:23;99542.78;;;42.99;20.06
6853;BME280;3465;42.144;24.722;2022-07-05T09:47:20;99540.63;;;43.32;20.64
6853;BME280;3465;42.144;24.722;2022-07-05T09:49:51;99535.13;;;43.40;20.79
6853;BME280;3465;42.144;24.722;2022-07-05T09:52:27;99535.47;;;44.10;20.00
6853;BME280;3465;42.144;24.722;2022-07-05T09:55:04;99538.50;;;44.00;20.05
6853;BME280;3465;42.144;24.722;2022-07-05T09:57:31;99535.72;;;44.29;19.72
6853;BME280;3465;42.144;24.722;2022-07-05T10:02:52;99525.06;;;44.13;19.60
6853;BME280;3465;42.144;24.722;2022-07-05T10:05:25;99510.94;;;43.97;19.81
6853;BME280;3465;42.144;24.722;2022-07-05T10:07:56;99516.59;;;44.16;19.54
6853;BME280;3465;42.144;24.722;2022-07-05T10:10:27;99502.91;;;42.79;20.03
6853;BME280;3465;42.144;24.722;2022-07-05T10:12:55;99503.25;;;42.98;20.04
6853;BME280;3465;42.144;24.722;2022-07-05T10:15:24;99505.63;;;43.30;19.91
6853;BME280;3465;42.144;24.722;2022-07-05T10:22:53;99499.66;;;43.35;20.61
6853;BME280;3465;42.144;24.722;2022-07-05T10:25:19;99498.06;;;43.84;19.79
6853;BME280;3465;42.144;24.722;2022-07-05T10:27:45;99499.06;;;43.83;19.79
6853;BME280;3465;42.144;24.722;2022-07-05T10:30:12;99502.25;;;43.87;19.67
6853;BME280;3465;42.144;24.722;2022-07-05T10:32:38;99495.56;;;43.68;20.06
6853;BME280;3465;42.144;24.722;2022-07-05T10:35:04;99495.84;;;43.58;19.71
6853;BME280;3465;42.144;24.722;2022-07-05T10:37:32;99498.75;;;43.28;20.20
6853;BME280;3465;42.144;24.722;2022-07-05T10:39:59;99483.44;;;42.83;20.64
6853;BME280;3465;42.144;24.722;2022-07-05T10:42:28;99475.06;;;41.72;21.41
6853;BME280;3465;42.144;24.722;2022-07-05T10:44:55;99470.13;;;41.53;21.86
6853;BME280;3465;42.144;24.722;2022-07-05T10:47:20;99462.97;;;40.33;23.11
6853;BME280;3465;42.144;24.722;2022-07-05T10:50:00;99462.53;;;39.87;23.75
6853;BME280;3465;42.144;24.722;2022-07-05T10:52:26;99453.34;;;39.56;24.64
6853;BME280;3465;42.144;24.722;2022-07-05T10:57:42;99436.00;;;39.17;24.10
6853;BME280;3465;42.144;24.722;2022-07-05T11:00:08;99447.69;;;39.75;24.31
6853;BME280;3465;42.144;24.722;2022-07-05T11:02:35;99436.91;;;40.81;23.19
6853;BME280;3465;42.144;24.722;2022-07-05T11:05:02;99443.63;;;41.40;22.46
6853;BME280;3465;42.144;24.722;2022-07-05T11:10:22;99468.84;;;42.70;21.74
6853;BME280;3465;42.144;24.722;2022-07-05T11:12:48;99425.28;;;41.74;22.88
6853;BME280;3465;42.144;24.722;2022-07-05T11:15:13;99447.50;;;40.83;23.61
6853;BME280;3465;42.144;24.722;2022-07-05T11:17:39;99429.25;;;41.09;23.24
6853;BME280;3465;42.144;24.722;2022-07-05T11:23:25;99439.69;;;39.92;24.61
6853;BME280;3465;42.144;24.722;2022-07-05T11:25:23;99372.25;;;40.25;24.40
6853;BME280;3465;42.144;24.722;2022-07-05T11:28:13;99419.50;;;40.92;23.76
6853;BME280;3465;42.144;24.722;2022-07-05T11:30:50;99412.63;;;40.17;24.79
6853;BME280;3465;42.144;24.722;2022-07-05T11:35:51;99398.16;;;40.50;24.33
6853;BME280;3465;42.144;24.722;2022-07-05T11:38:17;99399.81;;;39.87;25.43
6853;BME280;3465;42.144;24.722;2022-07-05T11:40:43;99389.00;;;39.21;26.08
6853;BME280;3465;42.144;24.722;2022-07-05T11:43:08;99380.53;;;38.14;27.40
6853;BME280;3465;42.144;24.722;2022-07-05T11:45:34;99377.22;;;38.20;27.64
6853;BME280;3465;42.144;24.722;2022-07-05T11:48:01;99373.53;;;37.68;28.32
6853;BME280;3465;42.144;24.722;2022-07-05T11:50:33;99374.34;;;37.51;28.21
6853;BME280;3465;42.144;24.722;2022-07-05T11:52:59;99374.47;;;37.77;27.13
6853;BME280;3465;42.144;24.722;2022-07-05T11:55:27;99363.09;;;38.18;27.62
6853;BME280;3465;42.144;24.722;2022-07-05T11:57:54;99365.38;;;38.30;28.51
6853;BME280;3465;42.144;24.722;2022-07-05T12:00:36;99368.25;;;37.94;28.42
6853;BME280;3465;42.144;24.722;2022-07-05T12:03:11;99363.44;;;38.15;28.34
6853;BME280;3465;42.144;24.722;2022-07-05T12:05:36;99352.00;;;38.13;28.21
6853;BME280;3465;42.144;24.722;2022-07-05T12:08:02;99376.69;;;37.81;28.88
6853;BME280;3465;42.144;24.722;2022-07-05T12:10:27;99360.59;;;38.16;28.66
6853;BME280;3465;42.144;24.722;2022-07-05T12:13:11;99349.44;;;37.59;29.15
6853;BME280;3465;42.144;24.722;2022-07-05T12:15:38;99359.19;;;37.77;29.57
6853;BME280;3465;42.144;24.722;2022-07-05T12:18:05;99358.75;;;37.37;29.04
6853;BME280;3465;42.144;24.722;2022-07-05T12:20:33;99353.75;;;37.15;30.15
6853;BME280;3465;42.144;24.722;2022-07-05T12:22:59;99346.50;;;37.52;29.83
6853;BME280;3465;42.144;24.722;2022-07-05T12:25:26;99339.16;;;37.00;30.03
6853;BME280;3465;42.144;24.722;2022-07-05T12:27:54;99352.72;;;37.53;29.82
6853;BME280;3465;42.144;24.722;2022-07-05T12:30:19;99359.69;;;37.63;29.62
6853;BME280;3465;42.144;24.722;2022-07-05T12:33:05;99341.28;;;37.33;29.98
6853;BME280;3465;42.144;24.722;2022-07-05T12:35:41;99351.34;;;37.21;30.03
6853;BME280;3465;42.144;24.722;2022-07-05T12:38:17;99348.44;;;37.60;29.06
6853;BME280;3465;42.144;24.722;2022-07-05T12:40:59;99346.25;;;37.73;28.94
6853;BME280;3465;42.144;24.722;2022-07-05T12:43:25;99339.75;;;37.93;29.27
6853;BME280;3465;42.144;24.722;2022-07-05T12:46:01;99347.94;;;38.26;28.03
6853;BME280;3465;42.144;24.722;2022-07-05T12:48:35;99335.09;;;37.68;29.73
6853;BME280;3465;42.144;24.722;2022-07-05T12:51:02;99336.00;;;37.23;29.83
6853;BME280;3465;42.144;24.722;2022-07-05T12:53:28;99323.66;;;37.03;30.47
6853;BME280;3465;42.144;24.722;2022-07-05T12:56:13;99300.75;;;36.55;30.50
6853;BME280;3465;42.144;24.722;2022-07-05T12:59:00;99333.38;;;36.77;31.04
6853;BME280;3465;42.144;24.722;2022-07-05T13:01:36;99325.19;;;36.69;31.25
6853;BME280;3465;42.144;24.722;2022-07-05T13:04:13;99322.41;;;36.52;30.94
6853;BME280;3465;42.144;24.722;2022-07-05T13:06:44;99308.69;;;36.37;30.88
6853;BME280;3465;42.144;24.722;2022-07-05T13:09:11;99304.63;;;35.66;31.91
6853;BME280;3465;42.144;24.722;2022-07-05T13:11:37;99300.53;;;35.72;32.04
6853;BME280;3465;42.144;24.722;2022-07-05T13:14:03;99297.69;;;35.35;32.73
6853;BME280;3465;42.144;24.722;2022-07-05T13:16:28;99299.69;;;35.62;32.47
6853;BME280;3465;42.144;24.722;2022-07-05T13:18:54;99289.00;;;35.71;32.87
6853;BME280;3465;42.144;24.722;2022-07-05T13:21:19;99276.34;;;35.54;32.60
6853;BME280;3465;42.144;24.722;2022-07-05T13:23:45;99285.84;;;35.28;33.41
6853;BME280;3465;42.144;24.722;2022-07-05T13:26:10;99291.81;;;34.92;33.53
6853;BME280;3465;42.144;24.722;2022-07-05T13:28:36;99278.69;;;34.80;34.18
6853;BME280;3465;42.144;24.722;2022-07-05T13:31:01;99285.38;;;34.64;34.28
6853;BME280;3465;42.144;24.722;2022-07-05T13:33:26;99282.44;;;34.67;34.06